createdAt,value
2023-03-27T00:01:27.646Z,8.70
2023-03-27T00:03:55.749Z,6.60
2023-03-27T00:06:25.087Z,6.10
2023-03-27T00:08:52.392Z,7.40
2023-03-27T00:11:21.205Z,10.90
2023-03-27T00:13:51.309Z,15.90
2023-03-27T00:16:21.767Z,12.10
2023-03-27T00:18:48.794Z,13.40
2023-03-27T00:21:15.954Z,11.20
2023-03-27T00:23:42.907Z,10.50
2023-03-27T00:26:10.120Z,7.10
2023-03-27T00:28:37.142Z,5.80
2023-03-27T00:31:04.256Z,8.00
2023-03-27T00:33:31.146Z,6.70
2023-03-27T00:35:58.080Z,7.90
2023-03-27T00:38:24.838Z,9.60
2023-03-27T00:40:54.825Z,8.50
2023-03-27T00:43:28.175Z,8.00
2023-03-27T00:46:01.733Z,8.80
2023-03-27T00:48:31.270Z,7.40
2023-03-27T00:50:59.242Z,6.90
2023-03-27T00:53:28.890Z,8.10
2023-03-27T00:56:01.378Z,6.30
2023-03-27T00:58:42.696Z,6.90
2023-03-27T01:01:13.140Z,5.90
2023-03-27T01:03:42.597Z,5.10
2023-03-27T01:06:14.029Z,5.00
2023-03-27T01:08:43.301Z,4.90
2023-03-27T01:11:30.903Z,4.50
2023-03-27T01:14:25.438Z,5.50
2023-03-27T01:17:07.637Z,4.90
2023-03-27T01:20:14.821Z,4.50
2023-03-27T01:23:09.389Z,5.10
2023-03-27T01:26:06.054Z,5.10
2023-03-27T01:29:12.810Z,5.00
2023-03-27T01:32:07.570Z,4.50
2023-03-27T01:34:42.811Z,4.60
2023-03-27T01:37:18.497Z,5.70
2023-03-27T01:39:55.795Z,5.60
2023-03-27T01:42:26.028Z,4.80
2023-03-27T01:45:21.296Z,6.10
2023-03-27T01:48:06.210Z,6.00
2023-03-27T01:50:37.737Z,5.80
2023-03-27T01:53:30.712Z,7.10
2023-03-27T01:56:04.560Z,6.40
2023-03-27T01:58:48.146Z,6.50
2023-03-27T02:01:24.748Z,6.60
2023-03-27T02:03:58.139Z,5.90
2023-03-27T02:06:33.659Z,5.80
2023-03-27T02:09:08.688Z,5.60
2023-03-27T02:11:41.491Z,5.60
2023-03-27T02:14:17.241Z,5.50
2023-03-27T02:16:47.897Z,6.50
2023-03-27T02:19:23.478Z,5.90
2023-03-27T02:21:50.329Z,5.00
2023-03-27T02:24:18.876Z,5.60
2023-03-27T02:26:50.487Z,6.60
2023-03-27T02:29:28.084Z,5.90
2023-03-27T02:32:25.406Z,5.80
2023-03-27T02:35:10.337Z,5.40
2023-03-27T02:38:08.385Z,5.50
2023-03-27T02:40:55.011Z,5.20
2023-03-27T02:43:34.681Z,5.60
2023-03-27T02:46:31.680Z,6.40
2023-03-27T02:49:04.920Z,6.00
2023-03-27T02:51:37.842Z,6.40
2023-03-27T02:54:40.584Z,6.30
2023-03-27T02:57:14.447Z,5.80
2023-03-27T02:59:50.955Z,5.50
2023-03-27T03:02:25.672Z,5.70
2023-03-27T03:04:59.195Z,6.40
2023-03-27T03:07:29.081Z,6.50
2023-03-27T03:12:23.340Z,6.00
2023-03-27T03:14:50.287Z,7.40
2023-03-27T03:17:17.497Z,5.70
2023-03-27T03:19:44.189Z,6.30
2023-03-27T03:22:11.669Z,6.00
2023-03-27T03:24:42.384Z,5.60
2023-03-27T03:27:09.892Z,5.20
2023-03-27T03:29:37.660Z,5.50
2023-03-27T03:32:06.440Z,5.50
2023-03-27T03:34:36.865Z,4.90
2023-03-27T03:37:03.773Z,5.50
2023-03-27T03:39:30.982Z,5.00
2023-03-27T03:41:57.727Z,5.10
2023-03-27T03:44:24.587Z,5.20
2023-03-27T03:46:51.322Z,6.10
2023-03-27T03:49:18.025Z,5.50
2023-03-27T03:51:44.807Z,5.30
2023-03-27T03:54:12.169Z,5.50
2023-03-27T03:56:41.761Z,6.20
2023-03-27T03:59:10.126Z,6.70
2023-03-27T04:01:36.917Z,7.30
2023-03-27T04:04:04.464Z,6.60
2023-03-27T04:06:32.693Z,7.20
2023-03-27T04:08:59.520Z,6.40
2023-03-27T04:11:26.381Z,7.20
2023-03-27T04:13:53.148Z,7.20
2023-03-27T04:16:20.170Z,6.50
2023-03-27T04:18:50.762Z,7.00
2023-03-27T04:21:17.900Z,8.30
2023-03-27T04:23:48.770Z,7.40
2023-03-27T04:26:16.400Z,6.80
2023-03-27T04:28:43.500Z,6.00
2023-03-27T04:31:11.073Z,7.40
2023-03-27T04:33:40.194Z,6.70
2023-03-27T04:36:08.941Z,7.50
2023-03-27T04:38:40.948Z,7.00
2023-03-27T04:41:08.217Z,7.00
2023-03-27T04:43:37.013Z,6.90
2023-03-27T04:46:08.152Z,7.00
2023-03-27T04:48:39.084Z,6.60
2023-03-27T04:51:07.297Z,7.90
2023-03-27T04:53:36.564Z,7.70
2023-03-27T04:56:05.596Z,7.80
2023-03-27T04:58:33.402Z,8.60
2023-03-27T05:01:02.584Z,8.30
2023-03-27T05:03:29.526Z,8.10
2023-03-27T05:05:56.550Z,7.70
2023-03-27T05:08:23.265Z,7.10
2023-03-27T05:10:50.060Z,7.70
2023-03-27T05:13:16.802Z,7.10
2023-03-27T05:15:43.816Z,7.50
2023-03-27T05:18:10.866Z,7.70
2023-03-27T05:20:37.762Z,7.20
2023-03-27T05:23:04.620Z,7.20
2023-03-27T05:25:33.048Z,7.70
2023-03-27T05:28:00.762Z,9.60
2023-03-27T05:30:28.323Z,9.20
2023-03-27T05:32:58.430Z,9.60
2023-03-27T05:35:28.700Z,7.90
2023-03-27T05:37:57.398Z,8.60
2023-03-27T05:40:26.854Z,7.80
2023-03-27T05:42:55.502Z,8.30
2023-03-27T05:45:23.508Z,8.50
2023-03-27T05:47:56.227Z,9.30
2023-03-27T05:50:25.796Z,9.90
2023-03-27T05:53:01.600Z,11.00
2023-03-27T05:55:28.835Z,8.90
2023-03-27T05:57:55.638Z,8.50
2023-03-27T06:00:26.251Z,9.60
2023-03-27T06:02:58.341Z,9.90
2023-03-27T06:05:27.822Z,8.70
2023-03-27T06:07:54.621Z,9.40
2023-03-27T06:10:22.141Z,10.30
2023-03-27T06:12:49.463Z,10.50
2023-03-27T06:15:17.138Z,10.70
2023-03-27T06:17:47.699Z,9.60
2023-03-27T06:20:15.693Z,10.10
2023-03-27T06:22:49.087Z,10.60
2023-03-27T06:25:16.851Z,10.40
2023-03-27T06:27:45.763Z,10.30
2023-03-27T06:30:17.574Z,10.00
2023-03-27T06:32:52.598Z,9.10
2023-03-27T06:35:21.220Z,9.80
2023-03-27T06:37:51.344Z,9.70
2023-03-27T06:40:24.396Z,8.80
2023-03-27T06:43:02.873Z,9.70
2023-03-27T06:45:33.527Z,9.10
2023-03-27T06:48:17.947Z,9.20
2023-03-27T06:50:49.831Z,9.80
2023-03-27T06:55:48.240Z,9.90
2023-03-27T06:58:15.300Z,9.70
2023-03-27T07:00:43.655Z,9.60
2023-03-27T07:03:12.111Z,7.30
2023-03-27T07:05:41.083Z,8.30
2023-03-27T07:08:22.527Z,9.00
2023-03-27T07:11:07.518Z,10.60
2023-03-27T07:13:38.977Z,9.10
2023-03-27T07:16:06.470Z,9.10
2023-03-27T07:18:33.424Z,9.80
2023-03-27T07:21:00.878Z,8.90
2023-03-27T07:23:27.811Z,9.50
2023-03-27T07:26:01.935Z,10.70
2023-03-27T07:28:28.918Z,9.90
2023-03-27T07:30:56.284Z,9.50
2023-03-27T07:33:24.110Z,8.50
2023-03-27T07:35:51.177Z,9.70
2023-03-27T07:38:18.734Z,9.00
2023-03-27T07:40:46.867Z,8.20
2023-03-27T07:43:15.838Z,8.40
2023-03-27T07:45:42.649Z,8.10
2023-03-27T07:48:15.028Z,8.30
2023-03-27T07:50:43.350Z,7.50
2023-03-27T07:53:33.285Z,7.10
2023-03-27T07:56:03.813Z,7.60
2023-03-27T07:58:31.168Z,7.30
2023-03-27T08:01:02.874Z,6.80
2023-03-27T08:03:31.060Z,6.50
2023-03-27T08:06:00.305Z,7.20
2023-03-27T08:08:28.427Z,7.10
2023-03-27T08:10:55.524Z,7.50
2023-03-27T08:13:22.590Z,7.10
2023-03-27T08:15:49.706Z,5.70
2023-03-27T08:18:16.894Z,6.60
2023-03-27T08:20:43.784Z,5.60
2023-03-27T08:23:10.860Z,6.00
2023-03-27T08:25:37.635Z,5.70
2023-03-27T08:28:04.423Z,6.00
2023-03-27T08:30:31.254Z,6.50
2023-03-27T08:33:00.318Z,5.50
2023-03-27T08:35:27.347Z,5.40
2023-03-27T08:37:54.109Z,6.00
2023-03-27T08:40:29.714Z,5.90
2023-03-27T08:43:03.436Z,7.90
2023-03-27T08:45:38.971Z,7.00
2023-03-27T08:48:14.914Z,7.20
2023-03-27T08:50:47.315Z,8.00
2023-03-27T08:53:31.115Z,8.00
2023-03-27T08:55:58.476Z,7.00
2023-03-27T08:58:25.494Z,7.70
2023-03-27T09:01:26.669Z,8.10
2023-03-27T09:04:17.742Z,7.30
2023-03-27T09:06:54.854Z,8.30
2023-03-27T09:09:35.339Z,8.00
2023-03-27T09:12:31.216Z,9.60
2023-03-27T09:15:08.276Z,9.40
2023-03-27T09:17:46.893Z,7.90
2023-03-27T09:20:18.105Z,8.40
2023-03-27T09:22:58.233Z,9.70
2023-03-27T09:25:46.846Z,9.50
2023-03-27T09:28:23.929Z,9.20
2023-03-27T09:30:51.267Z,8.20
2023-03-27T09:33:18.149Z,9.00
2023-03-27T09:35:45.901Z,8.10
2023-03-27T09:38:18.798Z,8.90
2023-03-27T09:40:56.405Z,8.30
2023-03-27T09:43:28.907Z,7.60
2023-03-27T09:45:58.314Z,7.80
2023-03-27T09:48:39.835Z,7.50
2023-03-27T09:51:40.916Z,7.40
2023-03-27T09:54:09.647Z,6.00
2023-03-27T09:56:43.867Z,6.70
2023-03-27T09:59:21.011Z,6.50
2023-03-27T10:01:50.646Z,5.90
2023-03-27T10:04:21.963Z,5.90
2023-03-27T10:07:05.760Z,5.30
2023-03-27T10:09:38.047Z,5.40
2023-03-27T10:12:08.186Z,4.70
2023-03-27T10:14:48.473Z,4.90
2023-03-27T10:17:24.771Z,4.60
2023-03-27T10:19:58.276Z,4.20
2023-03-27T10:22:32.020Z,3.90
2023-03-27T10:25:01.836Z,3.90
2023-03-27T10:29:58.126Z,4.10
2023-03-27T10:32:46.299Z,4.60
2023-03-27T10:35:27.471Z,4.10
2023-03-27T10:37:55.628Z,4.70
2023-03-27T10:40:27.076Z,4.40
2023-03-27T10:42:59.760Z,5.60
2023-03-27T10:45:26.708Z,5.90
2023-03-27T10:48:00.534Z,6.90
2023-03-27T10:50:58.634Z,7.40
2023-03-27T10:54:01.972Z,7.10
2023-03-27T10:56:54.935Z,8.80
2023-03-27T10:59:41.021Z,9.60
2023-03-27T11:02:17.649Z,6.80
2023-03-27T11:04:51.963Z,8.20
2023-03-27T11:07:27.628Z,9.30
2023-03-27T11:10:21.827Z,10.10
2023-03-27T11:13:01.870Z,8.40
2023-03-27T11:15:42.444Z,8.90
2023-03-27T11:18:18.821Z,7.60
2023-03-27T11:20:57.001Z,8.70
2023-03-27T11:23:44.847Z,9.00
2023-03-27T11:26:16.050Z,10.30
2023-03-27T11:28:49.704Z,10.40
2023-03-27T11:31:38.491Z,11.90
2023-03-27T11:34:28.869Z,11.60
2023-03-27T11:37:24.627Z,23.80
2023-03-27T11:40:04.625Z,13.50
2023-03-27T11:42:37.189Z,13.90
2023-03-27T11:45:07.683Z,13.10
2023-03-27T11:47:41.181Z,14.20
2023-03-27T11:50:30.858Z,12.50
2023-03-27T11:53:23.707Z,14.10
2023-03-27T11:56:04.314Z,13.60
2023-03-27T11:58:45.603Z,12.30
2023-03-27T12:01:28.131Z,13.00
2023-03-27T12:04:17.465Z,12.30
2023-03-27T12:07:04.274Z,12.40
2023-03-27T12:09:48.660Z,13.50
2023-03-27T12:12:42.517Z,13.00
2023-03-27T12:15:29.370Z,11.10
2023-03-27T12:18:00.584Z,12.00
2023-03-27T12:20:52.909Z,11.90
2023-03-27T12:23:49.165Z,12.90
2023-03-27T12:26:49.532Z,13.30
2023-03-27T12:29:31.255Z,10.60
2023-03-27T12:32:13.154Z,7.50
2023-03-27T12:34:55.058Z,7.30
2023-03-27T12:37:28.112Z,8.10
2023-03-27T12:39:59.435Z,10.20
2023-03-27T12:43:03.189Z,10.60
2023-03-27T12:45:29.888Z,9.50
2023-03-27T12:48:10.750Z,10.70
2023-03-27T12:50:55.668Z,9.40
2023-03-27T12:53:25.647Z,8.00
2023-03-27T12:56:27.378Z,7.40
2023-03-27T12:58:55.664Z,7.90
2023-03-27T13:01:51.611Z,8.00
2023-03-27T13:04:48.164Z,10.00
2023-03-27T13:07:38.353Z,11.10
2023-03-27T13:10:48.145Z,8.80
2023-03-27T13:13:20.636Z,8.40
2023-03-27T13:16:06.819Z,9.60
2023-03-27T13:19:12.700Z,8.10
2023-03-27T13:21:59.853Z,7.70
2023-03-27T13:24:40.713Z,9.10
2023-03-27T13:27:24.766Z,7.80
2023-03-27T13:29:53.461Z,9.00
2023-03-27T13:32:31.630Z,6.80
2023-03-27T13:35:28.497Z,7.70
2023-03-27T13:38:00.851Z,7.60
2023-03-27T13:40:27.835Z,6.50
2023-03-27T13:43:22.136Z,13.80
2023-03-27T13:45:55.623Z,10.10
2023-03-27T13:48:39.791Z,7.80
2023-03-27T13:51:41.961Z,7.20
2023-03-27T13:54:22.603Z,6.70
2023-03-27T13:57:03.592Z,7.30
2023-03-27T13:59:47.272Z,7.30
2023-03-27T14:02:42.184Z,7.30
2023-03-27T14:05:37.059Z,6.90
2023-03-27T14:08:21.063Z,7.60
2023-03-27T14:11:09.226Z,6.90
2023-03-27T14:13:55.926Z,6.50
2023-03-27T14:16:36.902Z,5.90
2023-03-27T14:19:17.532Z,8.40
2023-03-27T14:22:08.204Z,7.00
2023-03-27T14:24:44.377Z,7.30
2023-03-27T14:27:17.389Z,7.70
2023-03-27T14:29:45.428Z,8.70
2023-03-27T14:32:15.788Z,8.70
2023-03-27T14:37:45.295Z,7.40
2023-03-27T14:40:42.510Z,6.50
2023-03-27T14:43:12.447Z,5.70
2023-03-27T14:48:22.834Z,6.40
2023-03-27T14:50:54.507Z,6.60
2023-03-27T14:53:27.983Z,8.60
2023-03-27T14:55:56.047Z,7.80
2023-03-27T14:58:25.874Z,7.50
2023-03-27T15:01:00.150Z,5.90
2023-03-27T15:03:30.959Z,5.70
2023-03-27T15:06:27.116Z,6.60
2023-03-27T15:08:58.994Z,8.10
2023-03-27T15:11:33.536Z,9.00
2023-03-27T15:14:03.124Z,6.80
2023-03-27T15:16:36.172Z,7.40
2023-03-27T15:19:14.477Z,7.00
2023-03-27T15:22:02.058Z,6.70
2023-03-27T15:24:51.253Z,7.40
2023-03-27T15:27:40.860Z,7.80
2023-03-27T15:30:18.013Z,7.50
2023-03-27T15:32:50.821Z,7.20
2023-03-27T15:35:23.779Z,8.20
2023-03-27T15:37:51.174Z,19.00
2023-03-27T15:40:26.799Z,8.10
2023-03-27T15:43:02.354Z,7.30
2023-03-27T15:45:39.972Z,6.80
2023-03-27T15:48:25.207Z,7.40
2023-03-27T15:51:01.704Z,6.80
2023-03-27T15:53:40.888Z,8.70
2023-03-27T15:56:23.310Z,7.50
2023-03-27T15:59:06.789Z,6.80
2023-03-27T16:01:39.474Z,6.10
2023-03-27T16:04:14.772Z,6.60
2023-03-27T16:06:45.877Z,6.60
2023-03-27T16:09:28.753Z,6.40
2023-03-27T16:11:57.782Z,7.10
2023-03-27T16:14:33.007Z,6.00
2023-03-27T16:17:09.884Z,6.10
2023-03-27T16:19:48.309Z,5.70
2023-03-27T16:22:23.623Z,6.10
2023-03-27T16:24:51.478Z,6.60
2023-03-27T16:27:24.049Z,5.70
2023-03-27T16:29:51.827Z,6.90
2023-03-27T16:32:20.649Z,6.70
2023-03-27T16:34:47.908Z,6.70
2023-03-27T16:37:15.769Z,6.80
2023-03-27T16:39:43.200Z,5.70
2023-03-27T16:42:17.267Z,5.30
2023-03-27T16:44:45.614Z,6.60
2023-03-27T16:47:14.343Z,10.10
2023-03-27T16:49:41.723Z,8.60
2023-03-27T16:52:08.465Z,6.20
2023-03-27T16:54:35.322Z,7.30
2023-03-27T16:57:02.644Z,6.40
2023-03-27T16:59:29.390Z,5.90
2023-03-27T17:01:56.291Z,6.90
2023-03-27T17:04:23.308Z,5.60
2023-03-27T17:06:50.856Z,6.10
2023-03-27T17:09:18.290Z,6.90
2023-03-27T17:11:45.047Z,6.70
2023-03-27T17:14:12.203Z,4.40
2023-03-27T17:16:39.963Z,4.80
2023-03-27T17:19:07.174Z,6.40
2023-03-27T17:21:34.034Z,6.40
2023-03-27T17:24:01.110Z,4.00
2023-03-27T17:26:31.172Z,5.60
2023-03-27T17:31:27.728Z,6.20
2023-03-27T17:33:55.674Z,7.90
2023-03-27T17:36:36.773Z,7.40
2023-03-27T17:39:08.300Z,6.60
2023-03-27T17:41:35.084Z,5.60
2023-03-27T17:44:01.878Z,5.80
2023-03-27T17:46:28.714Z,5.70
2023-03-27T17:48:57.258Z,5.50
2023-03-27T17:51:24.080Z,7.00
2023-03-27T17:53:50.886Z,6.80
2023-03-27T17:56:17.735Z,5.70
2023-03-27T17:58:50.122Z,4.90
2023-03-27T18:01:19.578Z,5.40
2023-03-27T18:03:46.850Z,5.50
2023-03-27T18:06:17.465Z,5.60
2023-03-27T18:08:46.258Z,5.20
2023-03-27T18:11:15.703Z,4.90
2023-03-27T18:13:42.856Z,4.80
2023-03-27T18:16:13.609Z,5.50
2023-03-27T18:18:40.532Z,5.00
2023-03-27T18:21:07.715Z,4.90
2023-03-27T18:23:46.169Z,4.70
2023-03-27T18:26:14.606Z,4.40
2023-03-27T18:28:41.654Z,5.30
2023-03-27T18:31:11.415Z,5.70
2023-03-27T18:33:38.689Z,7.70
2023-03-27T18:36:11.548Z,5.00
2023-03-27T18:38:40.375Z,5.10
2023-03-27T18:41:07.891Z,5.40
2023-03-27T18:43:34.744Z,4.80
2023-03-27T18:46:07.158Z,5.00
2023-03-27T18:48:35.467Z,5.30
2023-03-27T18:51:04.825Z,5.20
2023-03-27T18:53:32.162Z,5.50
2023-03-27T18:56:00.031Z,5.20
2023-03-27T18:58:29.070Z,5.00
2023-03-27T19:00:57.307Z,6.10
2023-03-27T19:03:26.784Z,6.40
2023-03-27T19:05:53.999Z,6.90
2023-03-27T19:08:22.022Z,6.00
2023-03-27T19:10:49.464Z,5.90
2023-03-27T19:13:16.349Z,4.30
2023-03-27T19:15:44.089Z,5.00
2023-03-27T19:18:11.217Z,4.50
2023-03-27T19:20:38.220Z,4.90
2023-03-27T19:23:05.150Z,5.10
2023-03-27T19:25:35.412Z,5.20
2023-03-27T19:28:03.929Z,5.90
2023-03-27T19:30:32.510Z,6.30
2023-03-27T19:32:59.499Z,5.20
2023-03-27T19:35:26.682Z,4.90
2023-03-27T19:37:54.788Z,4.50
2023-03-27T19:40:22.230Z,5.00
2023-03-27T19:42:48.958Z,5.90
2023-03-27T19:45:16.398Z,5.30
2023-03-27T19:47:43.449Z,5.00
2023-03-27T19:50:11.192Z,4.70
2023-03-27T19:52:38.039Z,4.60
2023-03-27T19:55:05.611Z,4.90
2023-03-27T19:57:32.586Z,4.10
2023-03-27T19:59:59.342Z,5.00
2023-03-27T20:02:27.891Z,5.50
2023-03-27T20:04:54.841Z,4.50
2023-03-27T20:07:21.816Z,4.60
2023-03-27T20:09:48.597Z,4.00
2023-03-27T20:12:15.945Z,4.90
2023-03-27T20:14:46.535Z,5.30
2023-03-27T20:17:27.972Z,4.30
2023-03-27T20:19:55.782Z,4.40
2023-03-27T20:22:22.654Z,4.70
2023-03-27T20:24:49.604Z,4.60
2023-03-27T20:27:19.892Z,4.40
2023-03-27T20:29:48.083Z,4.50
2023-03-27T20:32:15.121Z,4.80
2023-03-27T20:34:41.854Z,4.00
2023-03-27T20:37:14.666Z,4.40
2023-03-27T20:39:47.439Z,4.40
2023-03-27T20:42:16.722Z,4.20
2023-03-27T20:44:44.716Z,4.60
2023-03-27T20:47:12.492Z,4.30
2023-03-27T20:49:43.079Z,4.10
2023-03-27T20:52:19.693Z,4.50
2023-03-27T20:54:48.141Z,4.70
2023-03-27T20:57:15.259Z,5.40
2023-03-27T20:59:41.952Z,5.80
2023-03-27T21:02:16.621Z,4.70
2023-03-27T21:04:43.384Z,5.60
2023-03-27T21:07:10.332Z,6.60
2023-03-27T21:09:38.595Z,6.30
2023-03-27T21:12:05.939Z,6.70
2023-03-27T21:14:32.949Z,6.10
2023-03-27T21:16:59.987Z,5.60
2023-03-27T21:19:26.942Z,6.30
2023-03-27T21:21:53.887Z,6.30
2023-03-27T21:24:20.890Z,6.80
2023-03-27T21:26:47.842Z,6.70
2023-03-27T21:29:15.571Z,6.90
2023-03-27T21:31:43.356Z,6.50
2023-03-27T21:34:11.263Z,7.00
2023-03-27T21:36:41.820Z,6.70
2023-03-27T21:39:09.266Z,5.80
2023-03-27T22:00:35.633Z,6.70
2023-03-27T22:03:03.175Z,6.00
2023-03-27T22:05:30.051Z,6.70
2023-03-27T22:07:57.741Z,7.30
2023-03-27T22:10:24.482Z,6.70
2023-03-27T22:12:51.184Z,6.50
2023-03-27T22:15:18.181Z,6.50
2023-03-27T22:17:45.193Z,6.10
2023-03-27T22:20:12.114Z,5.80
2023-03-27T22:22:38.932Z,6.90
2023-03-27T22:25:06.327Z,6.70
2023-03-27T22:27:33.161Z,6.90
2023-03-27T22:30:00.223Z,6.10
2023-03-27T22:32:27.018Z,6.90
2023-03-27T22:34:53.745Z,6.70
2023-03-27T22:37:21.063Z,6.30
2023-03-27T22:39:47.807Z,6.00
2023-03-27T22:42:14.673Z,6.60
2023-03-27T22:44:41.694Z,6.00
2023-03-27T22:47:08.621Z,6.10
2023-03-27T22:49:36.456Z,6.30
2023-03-27T22:52:04.707Z,6.00
2023-03-27T22:54:31.517Z,6.40
2023-03-27T22:56:59.117Z,6.70
2023-03-27T22:59:26.559Z,6.70
2023-03-27T23:01:53.356Z,7.40
2023-03-27T23:04:20.109Z,6.60
2023-03-27T23:06:46.977Z,6.80
2023-03-27T23:09:13.797Z,6.40
2023-03-27T23:11:41.369Z,7.20
2023-03-27T23:14:08.110Z,7.10
2023-03-27T23:16:34.807Z,6.20
2023-03-27T23:19:01.563Z,6.60
2023-03-27T23:21:28.393Z,7.10
2023-03-27T23:23:55.601Z,6.70
2023-03-27T23:26:27.654Z,6.80
2023-03-27T23:28:54.424Z,7.00
2023-03-27T23:31:21.269Z,6.60
2023-03-27T23:33:50.725Z,6.70
2023-03-27T23:36:21.028Z,6.00
2023-03-27T23:38:47.935Z,6.00
2023-03-27T23:41:16.103Z,7.00
2023-03-27T23:43:43.625Z,6.50
2023-03-27T23:46:12.762Z,6.30
2023-03-27T23:48:42.041Z,6.10
2023-03-27T23:51:10.721Z,6.70
2023-03-27T23:53:38.264Z,5.80
2023-03-27T23:56:05.841Z,6.80
2023-03-27T23:58:33.241Z,6.50
